createdAt,value
2018-07-26T00:02:59.677Z,8.13
2018-07-26T00:08:03.807Z,8.13
2018-07-26T00:13:07.967Z,8.40
2018-07-26T00:18:12.043Z,8.43
2018-07-26T00:23:16.097Z,7.77
2018-07-26T00:28:20.190Z,8.27
2018-07-26T00:33:24.299Z,8.60
2018-07-26T00:38:28.114Z,8.27
2018-07-26T00:43:32.175Z,8.00
2018-07-26T00:48:36.021Z,7.90
2018-07-26T00:53:40.091Z,8.27
2018-07-26T00:58:44.438Z,8.33
2018-07-26T01:03:48.543Z,8.30
2018-07-26T01:08:52.631Z,8.50
2018-07-26T01:13:56.472Z,8.27
2018-07-26T01:19:00.529Z,9.90
2018-07-26T01:24:04.337Z,7.87
2018-07-26T01:29:08.393Z,7.67
2018-07-26T01:34:12.210Z,7.73
2018-07-26T01:39:16.284Z,7.73
2018-07-26T01:44:23.443Z,7.80
2018-07-26T01:49:27.500Z,7.90
2018-07-26T01:54:31.578Z,7.63
2018-07-26T01:59:35.668Z,8.10
2018-07-26T02:04:39.477Z,8.07
2018-07-26T02:09:43.547Z,7.80
2018-07-26T02:14:47.619Z,7.50
2018-07-26T02:19:51.722Z,8.30
2018-07-26T02:24:55.770Z,8.07
2018-07-26T02:29:59.588Z,7.87
2018-07-26T02:35:03.632Z,7.93
2018-07-26T02:40:07.486Z,7.70
2018-07-26T02:45:11.305Z,7.93
2018-07-26T02:50:15.379Z,8.03
2018-07-26T02:55:19.431Z,8.10
2018-07-26T03:00:23.524Z,8.47
2018-07-26T03:05:27.567Z,8.10
2018-07-26T03:10:31.615Z,8.13
2018-07-26T03:15:35.723Z,7.63
2018-07-26T03:20:39.800Z,8.13
2018-07-26T03:25:44.119Z,7.50
2018-07-26T03:30:48.186Z,7.00
2018-07-26T03:35:52.010Z,7.57
2018-07-26T03:40:56.062Z,7.53
2018-07-26T03:46:00.119Z,7.20
2018-07-26T03:51:04.176Z,7.37
2018-07-26T03:56:08.042Z,7.13
2018-07-26T04:01:11.846Z,7.73
2018-07-26T04:06:15.913Z,8.40
2018-07-26T04:11:20.050Z,7.55
2018-07-26T04:16:24.085Z,7.77
2018-07-26T04:21:28.133Z,7.87
2018-07-26T04:26:32.208Z,6.97
2018-07-26T04:31:36.248Z,7.70
2018-07-26T04:36:40.312Z,7.83
2018-07-26T04:41:44.117Z,10.97
2018-07-26T04:46:48.183Z,8.80
2018-07-26T04:51:52.248Z,7.42
2018-07-26T04:56:56.300Z,8.07
2018-07-26T05:02:00.358Z,7.37
2018-07-26T05:07:04.413Z,6.53
2018-07-26T05:12:08.506Z,6.70
2018-07-26T05:17:12.526Z,7.37
2018-07-26T05:22:16.557Z,7.87
2018-07-26T05:27:20.385Z,6.77
2018-07-26T05:32:24.490Z,6.80
2018-07-26T05:37:28.588Z,6.13
2018-07-26T05:42:32.617Z,6.43
2018-07-26T05:47:42.885Z,6.03
2018-07-26T05:52:46.921Z,5.83
2018-07-26T05:57:50.733Z,6.20
2018-07-26T06:02:54.803Z,5.80
2018-07-26T06:07:58.861Z,5.37
2018-07-26T06:13:02.690Z,6.03
2018-07-26T06:18:06.583Z,6.43
2018-07-26T06:23:10.602Z,7.23
2018-07-26T06:28:14.646Z,4.20
2018-07-26T06:33:18.716Z,6.53
2018-07-26T06:38:22.893Z,5.80
2018-07-26T06:43:26.931Z,5.30
2018-07-26T06:48:31.086Z,4.87
2018-07-26T06:53:34.934Z,4.22
2018-07-26T06:58:38.993Z,3.80
2018-07-26T07:03:42.809Z,4.20
2018-07-26T07:08:46.870Z,4.53
2018-07-26T07:13:50.939Z,3.72
2018-07-26T07:18:54.789Z,4.33
2018-07-26T07:23:58.625Z,3.67
2018-07-26T07:29:02.473Z,3.35
2018-07-26T07:34:06.998Z,3.87
2018-07-26T07:39:12.827Z,3.70
2018-07-26T07:44:17.674Z,3.87
2018-07-26T07:49:21.818Z,5.75
2018-07-26T07:54:25.862Z,3.40
2018-07-26T07:59:29.915Z,6.30
2018-07-26T08:04:33.729Z,4.75
2018-07-26T08:09:37.807Z,7.33
2018-07-26T08:14:41.866Z,3.90
2018-07-26T08:19:45.909Z,3.92
2018-07-26T08:24:49.965Z,5.10
2018-07-26T08:29:54.029Z,5.10
2018-07-26T08:34:58.709Z,4.45
2018-07-26T08:40:02.826Z,4.15
2018-07-26T08:45:06.891Z,5.87
2018-07-26T08:50:10.944Z,4.08
2018-07-26T08:55:15.007Z,5.53
2018-07-26T09:00:19.541Z,4.53
2018-07-26T09:05:23.589Z,9.35
2018-07-26T09:10:27.498Z,5.05
2018-07-26T09:15:31.337Z,8.85
2018-07-26T09:20:35.382Z,5.03
2018-07-26T09:25:39.454Z,5.83
2018-07-26T09:30:43.281Z,7.53
2018-07-26T09:35:47.386Z,4.28
2018-07-26T09:40:51.134Z,5.72
2018-07-26T09:45:55.224Z,6.75
2018-07-26T09:50:59.258Z,4.22
2018-07-26T09:56:03.073Z,4.92
2018-07-26T10:01:12.637Z,4.80
2018-07-26T10:06:16.693Z,4.73
2018-07-26T10:11:20.517Z,4.10
2018-07-26T10:16:25.030Z,5.13
2018-07-26T10:21:29.082Z,4.80
2018-07-26T10:26:33.118Z,4.62
2018-07-26T10:31:37.153Z,5.87
2018-07-26T10:36:41.242Z,5.85
2018-07-26T10:41:45.382Z,6.28
2018-07-26T10:46:49.417Z,4.25
2018-07-26T10:51:53.231Z,4.83
2018-07-26T10:56:57.830Z,3.92
2018-07-26T11:02:01.641Z,3.37
2018-07-26T11:07:05.755Z,3.22
2018-07-26T11:12:09.585Z,4.20
2018-07-26T11:17:13.385Z,3.02
2018-07-26T11:22:17.426Z,7.17
2018-07-26T11:27:21.249Z,3.55
2018-07-26T11:32:25.148Z,2.40
2018-07-26T11:37:28.877Z,3.35
2018-07-26T11:42:33.198Z,3.67
2018-07-26T11:47:37.737Z,5.95
2018-07-26T11:52:41.571Z,5.45
2018-07-26T11:57:45.585Z,3.35
2018-07-26T12:02:49.418Z,4.08
2018-07-26T12:07:53.269Z,3.17
2018-07-26T12:12:57.343Z,5.28
2018-07-26T12:18:01.390Z,5.35
2018-07-26T12:23:05.445Z,3.10
2018-07-26T12:28:09.229Z,2.90
2018-07-26T12:33:13.278Z,6.35
2018-07-26T12:38:17.318Z,5.33
2018-07-26T12:43:21.360Z,4.70
2018-07-26T12:48:25.176Z,4.35
2018-07-26T12:53:29.221Z,4.53
2018-07-26T12:58:33.290Z,7.12
2018-07-26T13:03:37.322Z,3.05
2018-07-26T13:08:41.403Z,2.72
2018-07-26T13:13:45.745Z,2.40
2018-07-26T13:18:49.766Z,5.08
2018-07-26T13:23:53.810Z,5.42
2018-07-26T13:28:57.869Z,3.95
2018-07-26T13:34:01.903Z,4.75
2018-07-26T13:39:11.514Z,2.30
2018-07-26T13:44:15.637Z,2.77
2018-07-26T13:49:19.666Z,3.05
2018-07-26T13:54:23.730Z,5.53
2018-07-26T13:59:27.795Z,6.33
2018-07-26T14:04:31.881Z,4.22
2018-07-26T14:09:35.704Z,4.15
2018-07-26T14:14:39.805Z,4.05
2018-07-26T14:19:43.840Z,4.15
2018-07-26T14:24:47.878Z,2.47
2018-07-26T14:29:51.906Z,2.40
2018-07-26T14:34:55.982Z,3.62
2018-07-26T14:40:00.019Z,2.40
2018-07-26T14:45:04.378Z,3.50
2018-07-26T14:50:08.421Z,2.92
2018-07-26T14:55:12.237Z,4.03
2018-07-26T15:00:16.059Z,2.52
2018-07-26T15:05:20.120Z,3.05
2018-07-26T15:10:24.078Z,2.60
2018-07-26T15:15:27.902Z,4.28
2018-07-26T15:20:31.756Z,2.50
2018-07-26T15:25:35.560Z,4.62
2018-07-26T15:30:39.610Z,2.77
2018-07-26T15:35:43.663Z,3.05
2018-07-26T15:40:47.805Z,2.80
2018-07-26T15:45:51.872Z,2.98
2018-07-26T15:50:55.927Z,2.40
2018-07-26T15:55:59.986Z,2.27
2018-07-26T16:01:04.008Z,2.47
2018-07-26T16:06:08.064Z,2.33
2018-07-26T16:11:12.154Z,2.00
2018-07-26T16:16:16.246Z,3.55
2018-07-26T16:21:20.571Z,1.97
2018-07-26T16:26:24.612Z,1.93
2018-07-26T16:31:28.648Z,2.92
2018-07-26T16:36:32.782Z,2.20
2018-07-26T16:41:36.882Z,3.20
2018-07-26T16:46:40.688Z,3.60
2018-07-26T16:51:44.534Z,1.65
2018-07-26T16:56:48.581Z,2.42
2018-07-26T17:01:52.407Z,2.77
2018-07-26T17:06:56.479Z,2.60
2018-07-26T17:12:00.286Z,1.98
2018-07-26T17:17:04.383Z,4.60
2018-07-26T17:22:08.269Z,3.60
2018-07-26T17:27:12.115Z,3.25
2018-07-26T17:32:16.164Z,4.40
2018-07-26T17:37:21.183Z,5.28
2018-07-26T17:42:25.018Z,4.05
2018-07-26T17:47:29.069Z,3.90
2018-07-26T17:52:33.230Z,3.33
2018-07-26T17:57:37.040Z,4.10
2018-07-26T18:02:41.174Z,5.10
2018-07-26T18:07:45.220Z,4.17
2018-07-26T18:12:49.278Z,3.80
2018-07-26T18:17:53.418Z,6.03
2018-07-26T18:22:57.478Z,3.12
2018-07-26T18:28:01.566Z,4.62
2018-07-26T18:33:06.460Z,4.00
2018-07-26T18:38:10.606Z,6.42
2018-07-26T18:43:14.587Z,5.53
2018-07-26T18:48:18.392Z,4.85
2018-07-26T18:53:22.471Z,5.28
2018-07-26T18:58:26.539Z,4.67
2018-07-26T19:03:30.581Z,5.10
2018-07-26T19:08:34.648Z,4.83
2018-07-26T19:13:38.705Z,12.93
2018-07-26T19:18:42.794Z,11.48
2018-07-26T19:23:46.848Z,3.92
2018-07-26T19:28:50.726Z,6.92
2018-07-26T19:33:54.565Z,3.75
2018-07-26T19:38:58.614Z,3.58
2018-07-26T19:44:02.472Z,4.22
2018-07-26T19:54:40.880Z,4.47
2018-07-26T19:59:44.685Z,4.42
2018-07-26T20:04:48.734Z,6.53
2018-07-26T20:09:52.593Z,6.17
2018-07-26T20:14:56.443Z,3.58
2018-07-26T20:20:00.253Z,5.10
2018-07-26T20:25:04.346Z,4.23
2018-07-26T20:30:08.983Z,3.37
2018-07-26T20:35:13.045Z,4.00
2018-07-26T20:40:16.865Z,4.30
2018-07-26T20:45:20.925Z,4.47
2018-07-26T20:50:24.873Z,5.93
2018-07-26T20:55:28.907Z,4.90
2018-07-26T21:00:32.849Z,4.70
2018-07-26T21:05:36.897Z,4.10
2018-07-26T21:10:41.002Z,5.13
2018-07-26T21:15:45.058Z,4.27
2018-07-26T21:20:49.112Z,8.17
2018-07-26T21:25:53.169Z,4.27
2018-07-26T21:30:57.254Z,7.43
2018-07-26T21:36:01.314Z,4.80
2018-07-26T21:41:05.400Z,4.43
2018-07-26T21:46:09.232Z,4.53
2018-07-26T21:51:13.278Z,4.73
2018-07-26T21:56:17.094Z,6.70
2018-07-26T22:01:20.929Z,4.93
2018-07-26T22:06:25.137Z,5.23
2018-07-26T22:11:29.200Z,6.80
2018-07-26T22:16:33.307Z,5.60
2018-07-26T22:21:37.374Z,5.97
2018-07-26T22:26:41.442Z,5.33
2018-07-26T22:31:45.253Z,4.83
2018-07-26T22:36:49.308Z,4.37
2018-07-26T22:41:53.365Z,4.40
2018-07-26T22:46:57.422Z,4.77
2018-07-26T22:52:01.478Z,5.90
2018-07-26T22:57:05.675Z,4.53
2018-07-26T23:02:09.827Z,4.30
2018-07-26T23:07:13.882Z,4.33
2018-07-26T23:12:18.012Z,5.97
2018-07-26T23:17:22.363Z,5.43
2018-07-26T23:22:26.662Z,5.63
2018-07-26T23:27:30.825Z,4.17
2018-07-26T23:32:35.052Z,3.83
2018-07-26T23:37:39.102Z,6.40
2018-07-26T23:42:43.276Z,5.33
2018-07-26T23:47:47.403Z,3.90
2018-07-26T23:52:51.498Z,4.03
2018-07-26T23:57:55.546Z,4.23
